<?xml version="1.0" encoding="UTF-8" standalone="no" ?>
<gpx xmlns="http://www.topografix.com/GPX/1/1" xmlns:xsi="http://www.w3.org/2001/XMLSchema-instance" xsi:schemaLocation="http://www.topografix.com/GPX/1/1 http://www.topografix.com/GPX/1/1/gpx.xsd" version="1.1" creator="VisuGPX - https://www.visugpx.com">
  <metadata>
    <name>Boucle dans le Véxin au départ d'Us</name>
    <desc><![CDATA[Us, un peu de la chaussée Jules César; Ableiges.]]></desc>
  </metadata>
  <trk>
    <name><![CDATA[9437515-Boucle en Vexin au départ d'Us]]></name>
    <trkseg>
      <trkpt lat="49.09915" lon="1.97113">
        <ele>49</ele>
        <time>2019-01-04T18:47:13Z</time>
      </trkpt>
      <trkpt lat="49.10055" lon="1.97047">
        <ele>49</ele>
        <time>2019-01-04T18:48:13Z</time>
      </trkpt>
      <trkpt lat="49.10103" lon="1.97025">
        <ele>49</ele>
        <time>2019-01-04T18:49:13Z</time>
      </trkpt>
      <trkpt lat="49.10089" lon="1.96968">
        <ele>50</ele>
        <time>2019-01-04T18:50:13Z</time>
      </trkpt>
      <trkpt lat="49.10071" lon="1.96953">
        <ele>51</ele>
        <time>2019-01-04T18:51:13Z</time>
      </trkpt>
      <trkpt lat="49.10053" lon="1.9695">
        <ele>51</ele>
        <time>2019-01-04T18:52:13Z</time>
      </trkpt>
      <trkpt lat="49.10051" lon="1.96925">
        <ele>52</ele>
        <time>2019-01-04T18:53:13Z</time>
      </trkpt>
      <trkpt lat="49.10013" lon="1.96798">
        <ele>63</ele>
        <time>2019-01-04T18:54:13Z</time>
      </trkpt>
      <trkpt lat="49.10015" lon="1.9677">
        <ele>65</ele>
        <time>2019-01-04T18:55:13Z</time>
      </trkpt>
      <trkpt lat="49.10036" lon="1.96736">
        <ele>65</ele>
        <time>2019-01-04T18:56:13Z</time>
      </trkpt>
      <trkpt lat="49.10086" lon="1.96689">
        <ele>61</ele>
        <time>2019-01-04T18:57:13Z</time>
      </trkpt>
      <trkpt lat="49.10145" lon="1.96641">
        <ele>60</ele>
        <time>2019-01-04T18:58:13Z</time>
      </trkpt>
      <trkpt lat="49.10197" lon="1.96489">
        <ele>68</ele>
        <time>2019-01-04T18:59:13Z</time>
      </trkpt>
      <trkpt lat="49.10199" lon="1.96471">
        <ele>69</ele>
        <time>2019-01-04T19:00:13Z</time>
      </trkpt>
      <trkpt lat="49.10174" lon="1.96448">
        <ele>72</ele>
        <time>2019-01-04T19:01:13Z</time>
      </trkpt>
      <trkpt lat="49.10151" lon="1.96415">
        <ele>76</ele>
        <time>2019-01-04T19:02:13Z</time>
      </trkpt>
      <trkpt lat="49.10126" lon="1.96294">
        <ele>84</ele>
        <time>2019-01-04T19:03:13Z</time>
      </trkpt>
      <trkpt lat="49.10098" lon="1.96191">
        <ele>85</ele>
        <time>2019-01-04T19:04:13Z</time>
      </trkpt>
      <trkpt lat="49.10111" lon="1.9616">
        <ele>85</ele>
        <time>2019-01-04T19:05:13Z</time>
      </trkpt>
      <trkpt lat="49.10129" lon="1.96113">
        <ele>85</ele>
        <time>2019-01-04T19:06:13Z</time>
      </trkpt>
      <trkpt lat="49.10183" lon="1.96008">
        <ele>88</ele>
        <time>2019-01-04T19:07:13Z</time>
      </trkpt>
      <trkpt lat="49.10224" lon="1.95966">
        <ele>89</ele>
        <time>2019-01-04T19:08:13Z</time>
      </trkpt>
      <trkpt lat="49.10263" lon="1.95934">
        <ele>90</ele>
        <time>2019-01-04T19:09:13Z</time>
      </trkpt>
      <trkpt lat="49.10304" lon="1.95863">
        <ele>90</ele>
        <time>2019-01-04T19:10:13Z</time>
      </trkpt>
      <trkpt lat="49.10335" lon="1.95808">
        <ele>90</ele>
        <time>2019-01-04T19:11:13Z</time>
      </trkpt>
      <trkpt lat="49.10365" lon="1.95756">
        <ele>89</ele>
        <time>2019-01-04T19:12:13Z</time>
      </trkpt>
      <trkpt lat="49.10384" lon="1.95722">
        <ele>88</ele>
        <time>2019-01-04T19:13:13Z</time>
      </trkpt>
      <trkpt lat="49.10401" lon="1.95686">
        <ele>87</ele>
        <time>2019-01-04T19:14:13Z</time>
      </trkpt>
      <trkpt lat="49.10432" lon="1.95635">
        <ele>87</ele>
        <time>2019-01-04T19:15:13Z</time>
      </trkpt>
      <trkpt lat="49.10462" lon="1.95579">
        <ele>89</ele>
        <time>2019-01-04T19:16:13Z</time>
      </trkpt>
      <trkpt lat="49.10448" lon="1.95264">
        <ele>96</ele>
        <time>2019-01-04T19:17:13Z</time>
      </trkpt>
      <trkpt lat="49.10437" lon="1.95125">
        <ele>97</ele>
        <time>2019-01-04T19:18:13Z</time>
      </trkpt>
      <trkpt lat="49.10433" lon="1.95018">
        <ele>96</ele>
        <time>2019-01-04T19:19:13Z</time>
      </trkpt>
      <trkpt lat="49.10425" lon="1.94886">
        <ele>96</ele>
        <time>2019-01-04T19:20:13Z</time>
      </trkpt>
      <trkpt lat="49.10431" lon="1.94836">
        <ele>95</ele>
        <time>2019-01-04T19:21:13Z</time>
      </trkpt>
      <trkpt lat="49.1041" lon="1.94786">
        <ele>95</ele>
        <time>2019-01-04T19:22:13Z</time>
      </trkpt>
      <trkpt lat="49.10368" lon="1.94622">
        <ele>97</ele>
        <time>2019-01-04T19:23:13Z</time>
      </trkpt>
      <trkpt lat="49.10337" lon="1.94516">
        <ele>97</ele>
        <time>2019-01-04T19:24:13Z</time>
      </trkpt>
      <trkpt lat="49.10249" lon="1.94335">
        <ele>99</ele>
        <time>2019-01-04T19:25:13Z</time>
      </trkpt>
      <trkpt lat="49.10143" lon="1.94129">
        <ele>102</ele>
        <time>2019-01-04T19:26:13Z</time>
      </trkpt>
      <trkpt lat="49.10053" lon="1.94008">
        <ele>103</ele>
        <time>2019-01-04T19:27:13Z</time>
      </trkpt>
      <trkpt lat="49.10021" lon="1.93966">
        <ele>104</ele>
        <time>2019-01-04T19:28:13Z</time>
      </trkpt>
      <trkpt lat="49.09782" lon="1.9378">
        <ele>108</ele>
        <time>2019-01-04T19:29:13Z</time>
      </trkpt>
      <trkpt lat="49.09564" lon="1.94294">
        <ele>111</ele>
        <time>2019-01-04T19:30:13Z</time>
      </trkpt>
      <trkpt lat="49.09535" lon="1.94363">
        <ele>111</ele>
        <time>2019-01-04T19:31:13Z</time>
      </trkpt>
      <trkpt lat="49.09478" lon="1.94498">
        <ele>112</ele>
        <time>2019-01-04T19:32:13Z</time>
      </trkpt>
      <trkpt lat="49.09413" lon="1.94657">
        <ele>110</ele>
        <time>2019-01-04T19:33:13Z</time>
      </trkpt>
      <trkpt lat="49.09377" lon="1.9474">
        <ele>108</ele>
        <time>2019-01-04T19:34:13Z</time>
      </trkpt>
      <trkpt lat="49.09342" lon="1.94826">
        <ele>105</ele>
        <time>2019-01-04T19:35:13Z</time>
      </trkpt>
      <trkpt lat="49.09321" lon="1.94856">
        <ele>103</ele>
        <time>2019-01-04T19:36:13Z</time>
      </trkpt>
      <trkpt lat="49.0929" lon="1.94878">
        <ele>101</ele>
        <time>2019-01-04T19:37:13Z</time>
      </trkpt>
      <trkpt lat="49.09212" lon="1.94901">
        <ele>95</ele>
        <time>2019-01-04T19:38:13Z</time>
      </trkpt>
      <trkpt lat="49.09184" lon="1.94901">
        <ele>93</ele>
        <time>2019-01-04T19:39:13Z</time>
      </trkpt>
      <trkpt lat="49.09146" lon="1.9489">
        <ele>92</ele>
        <time>2019-01-04T19:40:13Z</time>
      </trkpt>
      <trkpt lat="49.09117" lon="1.94871">
        <ele>93</ele>
        <time>2019-01-04T19:41:13Z</time>
      </trkpt>
      <trkpt lat="49.09089" lon="1.94848">
        <ele>92</ele>
        <time>2019-01-04T19:42:13Z</time>
      </trkpt>
      <trkpt lat="49.09054" lon="1.94835">
        <ele>93</ele>
        <time>2019-01-04T19:43:13Z</time>
      </trkpt>
      <trkpt lat="49.09023" lon="1.94828">
        <ele>95</ele>
        <time>2019-01-04T19:44:13Z</time>
      </trkpt>
      <trkpt lat="49.09009" lon="1.94845">
        <ele>96</ele>
        <time>2019-01-04T19:45:13Z</time>
      </trkpt>
      <trkpt lat="49.08998" lon="1.94905">
        <ele>100</ele>
        <time>2019-01-04T19:46:13Z</time>
      </trkpt>
      <trkpt lat="49.08995" lon="1.94937">
        <ele>101</ele>
        <time>2019-01-04T19:47:13Z</time>
      </trkpt>
      <trkpt lat="49.08989" lon="1.94968">
        <ele>101</ele>
        <time>2019-01-04T19:48:13Z</time>
      </trkpt>
      <trkpt lat="49.08983" lon="1.95006">
        <ele>101</ele>
        <time>2019-01-04T19:49:13Z</time>
      </trkpt>
      <trkpt lat="49.08976" lon="1.95069">
        <ele>100</ele>
        <time>2019-01-04T19:50:13Z</time>
      </trkpt>
      <trkpt lat="49.0896" lon="1.95189">
        <ele>100</ele>
        <time>2019-01-04T19:51:13Z</time>
      </trkpt>
      <trkpt lat="49.08919" lon="1.95493">
        <ele>93</ele>
        <time>2019-01-04T19:52:13Z</time>
      </trkpt>
      <trkpt lat="49.08908" lon="1.95543">
        <ele>93</ele>
        <time>2019-01-04T19:53:13Z</time>
      </trkpt>
      <trkpt lat="49.089" lon="1.95564">
        <ele>93</ele>
        <time>2019-01-04T19:54:13Z</time>
      </trkpt>
      <trkpt lat="49.08882" lon="1.95592">
        <ele>93</ele>
        <time>2019-01-04T19:55:13Z</time>
      </trkpt>
      <trkpt lat="49.08865" lon="1.95609">
        <ele>93</ele>
        <time>2019-01-04T19:56:13Z</time>
      </trkpt>
      <trkpt lat="49.08843" lon="1.95609">
        <ele>93</ele>
        <time>2019-01-04T19:57:13Z</time>
      </trkpt>
      <trkpt lat="49.08814" lon="1.95626">
        <ele>93</ele>
        <time>2019-01-04T19:58:13Z</time>
      </trkpt>
      <trkpt lat="49.08811" lon="1.95651">
        <ele>93</ele>
        <time>2019-01-04T19:59:13Z</time>
      </trkpt>
      <trkpt lat="49.08833" lon="1.95672">
        <ele>92</ele>
        <time>2019-01-04T20:00:13Z</time>
      </trkpt>
      <trkpt lat="49.08861" lon="1.95696">
        <ele>92</ele>
        <time>2019-01-04T20:01:13Z</time>
      </trkpt>
      <trkpt lat="49.08876" lon="1.95723">
        <ele>93</ele>
        <time>2019-01-04T20:02:13Z</time>
      </trkpt>
      <trkpt lat="49.08893" lon="1.95754">
        <ele>93</ele>
        <time>2019-01-04T20:03:13Z</time>
      </trkpt>
      <trkpt lat="49.08907" lon="1.95774">
        <ele>94</ele>
        <time>2019-01-04T20:04:13Z</time>
      </trkpt>
      <trkpt lat="49.08912" lon="1.95802">
        <ele>94</ele>
        <time>2019-01-04T20:05:13Z</time>
      </trkpt>
      <trkpt lat="49.08908" lon="1.95832">
        <ele>95</ele>
        <time>2019-01-04T20:06:13Z</time>
      </trkpt>
      <trkpt lat="49.089" lon="1.95855">
        <ele>97</ele>
        <time>2019-01-04T20:07:13Z</time>
      </trkpt>
      <trkpt lat="49.08882" lon="1.959">
        <ele>99</ele>
        <time>2019-01-04T20:08:13Z</time>
      </trkpt>
      <trkpt lat="49.08854" lon="1.95968">
        <ele>103</ele>
        <time>2019-01-04T20:09:13Z</time>
      </trkpt>
      <trkpt lat="49.08808" lon="1.96079">
        <ele>104</ele>
        <time>2019-01-04T20:10:13Z</time>
      </trkpt>
      <trkpt lat="49.08787" lon="1.96126">
        <ele>103</ele>
        <time>2019-01-04T20:11:13Z</time>
      </trkpt>
      <trkpt lat="49.08749" lon="1.96212">
        <ele>102</ele>
        <time>2019-01-04T20:12:13Z</time>
      </trkpt>
      <trkpt lat="49.08721" lon="1.96268">
        <ele>102</ele>
        <time>2019-01-04T20:13:13Z</time>
      </trkpt>
      <trkpt lat="49.08709" lon="1.96294">
        <ele>101</ele>
        <time>2019-01-04T20:14:13Z</time>
      </trkpt>
      <trkpt lat="49.08729" lon="1.96414">
        <ele>97</ele>
        <time>2019-01-04T20:15:13Z</time>
      </trkpt>
      <trkpt lat="49.08749" lon="1.96543">
        <ele>92</ele>
        <time>2019-01-04T20:16:13Z</time>
      </trkpt>
      <trkpt lat="49.08753" lon="1.96608">
        <ele>90</ele>
        <time>2019-01-04T20:17:13Z</time>
      </trkpt>
      <trkpt lat="49.08754" lon="1.96678">
        <ele>86</ele>
        <time>2019-01-04T20:18:13Z</time>
      </trkpt>
      <trkpt lat="49.08737" lon="1.96753">
        <ele>82</ele>
        <time>2019-01-04T20:19:13Z</time>
      </trkpt>
      <trkpt lat="49.08728" lon="1.96798">
        <ele>82</ele>
        <time>2019-01-04T20:20:13Z</time>
      </trkpt>
      <trkpt lat="49.08734" lon="1.96831">
        <ele>80</ele>
        <time>2019-01-04T20:21:13Z</time>
      </trkpt>
      <trkpt lat="49.08757" lon="1.96884">
        <ele>80</ele>
        <time>2019-01-04T20:22:13Z</time>
      </trkpt>
      <trkpt lat="49.08784" lon="1.9692">
        <ele>79</ele>
        <time>2019-01-04T20:23:13Z</time>
      </trkpt>
      <trkpt lat="49.08802" lon="1.9699">
        <ele>75</ele>
        <time>2019-01-04T20:24:13Z</time>
      </trkpt>
      <trkpt lat="49.08837" lon="1.97109">
        <ele>70</ele>
        <time>2019-01-04T20:25:13Z</time>
      </trkpt>
      <trkpt lat="49.08861" lon="1.97229">
        <ele>67</ele>
        <time>2019-01-04T20:26:13Z</time>
      </trkpt>
      <trkpt lat="49.08885" lon="1.97298">
        <ele>65</ele>
        <time>2019-01-04T20:27:13Z</time>
      </trkpt>
      <trkpt lat="49.08909" lon="1.97382">
        <ele>64</ele>
        <time>2019-01-04T20:28:13Z</time>
      </trkpt>
      <trkpt lat="49.08927" lon="1.9748">
        <ele>63</ele>
        <time>2019-01-04T20:29:13Z</time>
      </trkpt>
      <trkpt lat="49.08937" lon="1.97523">
        <ele>61</ele>
        <time>2019-01-04T20:30:13Z</time>
      </trkpt>
      <trkpt lat="49.08969" lon="1.97635">
        <ele>54</ele>
        <time>2019-01-04T20:31:13Z</time>
      </trkpt>
      <trkpt lat="49.08969" lon="1.97676">
        <ele>54</ele>
        <time>2019-01-04T20:32:13Z</time>
      </trkpt>
      <trkpt lat="49.08964" lon="1.97764">
        <ele>54</ele>
        <time>2019-01-04T20:33:13Z</time>
      </trkpt>
      <trkpt lat="49.08971" lon="1.97871">
        <ele>52</ele>
        <time>2019-01-04T20:34:13Z</time>
      </trkpt>
      <trkpt lat="49.08967" lon="1.97935">
        <ele>52</ele>
        <time>2019-01-04T20:35:13Z</time>
      </trkpt>
      <trkpt lat="49.08975" lon="1.97985">
        <ele>52</ele>
        <time>2019-01-04T20:36:13Z</time>
      </trkpt>
      <trkpt lat="49.0899" lon="1.98008">
        <ele>51</ele>
        <time>2019-01-04T20:37:13Z</time>
      </trkpt>
      <trkpt lat="49.09027" lon="1.98052">
        <ele>48</ele>
        <time>2019-01-04T20:38:13Z</time>
      </trkpt>
      <trkpt lat="49.09036" lon="1.98063">
        <ele>47</ele>
        <time>2019-01-04T20:39:13Z</time>
      </trkpt>
      <trkpt lat="49.09049" lon="1.98077">
        <ele>46</ele>
        <time>2019-01-04T20:40:13Z</time>
      </trkpt>
      <trkpt lat="49.09082" lon="1.98107">
        <ele>45</ele>
        <time>2019-01-04T20:41:13Z</time>
      </trkpt>
      <trkpt lat="49.09113" lon="1.98128">
        <ele>45</ele>
        <time>2019-01-04T20:42:13Z</time>
      </trkpt>
      <trkpt lat="49.09156" lon="1.98164">
        <ele>46</ele>
        <time>2019-01-04T20:43:13Z</time>
      </trkpt>
      <trkpt lat="49.09204" lon="1.98184">
        <ele>50</ele>
        <time>2019-01-04T20:44:13Z</time>
      </trkpt>
      <trkpt lat="49.09213" lon="1.98249">
        <ele>53</ele>
        <time>2019-01-04T20:45:13Z</time>
      </trkpt>
      <trkpt lat="49.09223" lon="1.98319">
        <ele>57</ele>
        <time>2019-01-04T20:46:13Z</time>
      </trkpt>
      <trkpt lat="49.09245" lon="1.98323">
        <ele>59</ele>
        <time>2019-01-04T20:47:13Z</time>
      </trkpt>
      <trkpt lat="49.09336" lon="1.98332">
        <ele>73</ele>
        <time>2019-01-04T20:48:13Z</time>
      </trkpt>
      <trkpt lat="49.09352" lon="1.98347">
        <ele>75</ele>
        <time>2019-01-04T20:49:13Z</time>
      </trkpt>
      <trkpt lat="49.09395" lon="1.98358">
        <ele>79</ele>
        <time>2019-01-04T20:50:13Z</time>
      </trkpt>
      <trkpt lat="49.0943" lon="1.98379">
        <ele>82</ele>
        <time>2019-01-04T20:51:13Z</time>
      </trkpt>
      <trkpt lat="49.0947" lon="1.98418">
        <ele>83</ele>
        <time>2019-01-04T20:52:13Z</time>
      </trkpt>
      <trkpt lat="49.09516" lon="1.98465">
        <ele>85</ele>
        <time>2019-01-04T20:53:13Z</time>
      </trkpt>
      <trkpt lat="49.09581" lon="1.98537">
        <ele>85</ele>
        <time>2019-01-04T20:54:13Z</time>
      </trkpt>
      <trkpt lat="49.09629" lon="1.98603">
        <ele>85</ele>
        <time>2019-01-04T20:55:13Z</time>
      </trkpt>
      <trkpt lat="49.09704" lon="1.98489">
        <ele>88</ele>
        <time>2019-01-04T20:56:13Z</time>
      </trkpt>
      <trkpt lat="49.09801" lon="1.98337">
        <ele>90</ele>
        <time>2019-01-04T20:57:13Z</time>
      </trkpt>
      <trkpt lat="49.09891" lon="1.98202">
        <ele>89</ele>
        <time>2019-01-04T20:58:13Z</time>
      </trkpt>
      <trkpt lat="49.09905" lon="1.98168">
        <ele>88</ele>
        <time>2019-01-04T20:59:13Z</time>
      </trkpt>
      <trkpt lat="49.09895" lon="1.9806">
        <ele>84</ele>
        <time>2019-01-04T21:00:13Z</time>
      </trkpt>
      <trkpt lat="49.09888" lon="1.97993">
        <ele>80</ele>
        <time>2019-01-04T21:01:13Z</time>
      </trkpt>
      <trkpt lat="49.09881" lon="1.9797">
        <ele>79</ele>
        <time>2019-01-04T21:02:13Z</time>
      </trkpt>
      <trkpt lat="49.0986" lon="1.97949">
        <ele>77</ele>
        <time>2019-01-04T21:03:13Z</time>
      </trkpt>
      <trkpt lat="49.09925" lon="1.97936">
        <ele>78</ele>
        <time>2019-01-04T21:04:13Z</time>
      </trkpt>
      <trkpt lat="49.09968" lon="1.97922">
        <ele>79</ele>
        <time>2019-01-04T21:05:13Z</time>
      </trkpt>
      <trkpt lat="49.10053" lon="1.97886">
        <ele>80</ele>
        <time>2019-01-04T21:06:13Z</time>
      </trkpt>
      <trkpt lat="49.10115" lon="1.97858">
        <ele>81</ele>
        <time>2019-01-04T21:07:13Z</time>
      </trkpt>
      <trkpt lat="49.10148" lon="1.97858">
        <ele>82</ele>
        <time>2019-01-04T21:08:13Z</time>
      </trkpt>
      <trkpt lat="49.10172" lon="1.97869">
        <ele>84</ele>
        <time>2019-01-04T21:09:13Z</time>
      </trkpt>
      <trkpt lat="49.1021" lon="1.97899">
        <ele>87</ele>
        <time>2019-01-04T21:10:13Z</time>
      </trkpt>
      <trkpt lat="49.10252" lon="1.97931">
        <ele>89</ele>
        <time>2019-01-04T21:11:13Z</time>
      </trkpt>
      <trkpt lat="49.10279" lon="1.9795">
        <ele>92</ele>
        <time>2019-01-04T21:12:13Z</time>
      </trkpt>
      <trkpt lat="49.10303" lon="1.97978">
        <ele>93</ele>
        <time>2019-01-04T21:13:13Z</time>
      </trkpt>
      <trkpt lat="49.10328" lon="1.9807">
        <ele>98</ele>
        <time>2019-01-04T21:14:13Z</time>
      </trkpt>
      <trkpt lat="49.10344" lon="1.98135">
        <ele>100</ele>
        <time>2019-01-04T21:15:13Z</time>
      </trkpt>
      <trkpt lat="49.10356" lon="1.98188">
        <ele>102</ele>
        <time>2019-01-04T21:16:13Z</time>
      </trkpt>
      <trkpt lat="49.10371" lon="1.98274">
        <ele>106</ele>
        <time>2019-01-04T21:17:13Z</time>
      </trkpt>
      <trkpt lat="49.10398" lon="1.98448">
        <ele>105</ele>
        <time>2019-01-04T21:18:13Z</time>
      </trkpt>
      <trkpt lat="49.10445" lon="1.98502">
        <ele>104</ele>
        <time>2019-01-04T21:19:13Z</time>
      </trkpt>
      <trkpt lat="49.10504" lon="1.98566">
        <ele>106</ele>
        <time>2019-01-04T21:20:13Z</time>
      </trkpt>
      <trkpt lat="49.10584" lon="1.98652">
        <ele>108</ele>
        <time>2019-01-04T21:21:13Z</time>
      </trkpt>
      <trkpt lat="49.10664" lon="1.98744">
        <ele>109</ele>
        <time>2019-01-04T21:22:13Z</time>
      </trkpt>
      <trkpt lat="49.10717" lon="1.988">
        <ele>108</ele>
        <time>2019-01-04T21:23:13Z</time>
      </trkpt>
      <trkpt lat="49.10744" lon="1.98802">
        <ele>108</ele>
        <time>2019-01-04T21:24:13Z</time>
      </trkpt>
      <trkpt lat="49.10781" lon="1.9878">
        <ele>108</ele>
        <time>2019-01-04T21:25:13Z</time>
      </trkpt>
      <trkpt lat="49.10829" lon="1.98721">
        <ele>106</ele>
        <time>2019-01-04T21:26:13Z</time>
      </trkpt>
      <trkpt lat="49.1088" lon="1.98665">
        <ele>105</ele>
        <time>2019-01-04T21:27:13Z</time>
      </trkpt>
      <trkpt lat="49.10939" lon="1.986">
        <ele>100</ele>
        <time>2019-01-04T21:28:13Z</time>
      </trkpt>
      <trkpt lat="49.10958" lon="1.98528">
        <ele>97</ele>
        <time>2019-01-04T21:29:13Z</time>
      </trkpt>
      <trkpt lat="49.10965" lon="1.98469">
        <ele>95</ele>
        <time>2019-01-04T21:30:13Z</time>
      </trkpt>
      <trkpt lat="49.10977" lon="1.98393">
        <ele>94</ele>
        <time>2019-01-04T21:31:13Z</time>
      </trkpt>
      <trkpt lat="49.10994" lon="1.98266">
        <ele>95</ele>
        <time>2019-01-04T21:32:13Z</time>
      </trkpt>
      <trkpt lat="49.1101" lon="1.98165">
        <ele>96</ele>
        <time>2019-01-04T21:33:13Z</time>
      </trkpt>
      <trkpt lat="49.11035" lon="1.98068">
        <ele>93</ele>
        <time>2019-01-04T21:34:13Z</time>
      </trkpt>
      <trkpt lat="49.11061" lon="1.97963">
        <ele>91</ele>
        <time>2019-01-04T21:35:13Z</time>
      </trkpt>
      <trkpt lat="49.11067" lon="1.97914">
        <ele>89</ele>
        <time>2019-01-04T21:36:13Z</time>
      </trkpt>
      <trkpt lat="49.11066" lon="1.97766">
        <ele>90</ele>
        <time>2019-01-04T21:37:13Z</time>
      </trkpt>
      <trkpt lat="49.11115" lon="1.9781">
        <ele>91</ele>
        <time>2019-01-04T21:38:13Z</time>
      </trkpt>
      <trkpt lat="49.11226" lon="1.97959">
        <ele>96</ele>
        <time>2019-01-04T21:39:13Z</time>
      </trkpt>
      <trkpt lat="49.11283" lon="1.9803">
        <ele>98</ele>
        <time>2019-01-04T21:40:13Z</time>
      </trkpt>
      <trkpt lat="49.11338" lon="1.98062">
        <ele>99</ele>
        <time>2019-01-04T21:41:13Z</time>
      </trkpt>
      <trkpt lat="49.11404" lon="1.98115">
        <ele>101</ele>
        <time>2019-01-04T21:42:13Z</time>
      </trkpt>
      <trkpt lat="49.11505" lon="1.98186">
        <ele>99</ele>
        <time>2019-01-04T21:43:13Z</time>
      </trkpt>
      <trkpt lat="49.11556" lon="1.98199">
        <ele>101</ele>
        <time>2019-01-04T21:44:13Z</time>
      </trkpt>
      <trkpt lat="49.1161" lon="1.98189">
        <ele>103</ele>
        <time>2019-01-04T21:45:13Z</time>
      </trkpt>
      <trkpt lat="49.11664" lon="1.98176">
        <ele>105</ele>
        <time>2019-01-04T21:46:13Z</time>
      </trkpt>
      <trkpt lat="49.11716" lon="1.98169">
        <ele>105</ele>
        <time>2019-01-04T21:47:13Z</time>
      </trkpt>
      <trkpt lat="49.11684" lon="1.98124">
        <ele>105</ele>
        <time>2019-01-04T21:48:13Z</time>
      </trkpt>
      <trkpt lat="49.11626" lon="1.98032">
        <ele>104</ele>
        <time>2019-01-04T21:49:13Z</time>
      </trkpt>
      <trkpt lat="49.11565" lon="1.97931">
        <ele>104</ele>
        <time>2019-01-04T21:50:13Z</time>
      </trkpt>
      <trkpt lat="49.11476" lon="1.97792">
        <ele>101</ele>
        <time>2019-01-04T21:51:13Z</time>
      </trkpt>
      <trkpt lat="49.11447" lon="1.97729">
        <ele>100</ele>
        <time>2019-01-04T21:52:13Z</time>
      </trkpt>
      <trkpt lat="49.11428" lon="1.97665">
        <ele>98</ele>
        <time>2019-01-04T21:53:13Z</time>
      </trkpt>
      <trkpt lat="49.11402" lon="1.97594">
        <ele>97</ele>
        <time>2019-01-04T21:54:13Z</time>
      </trkpt>
      <trkpt lat="49.11359" lon="1.97495">
        <ele>93</ele>
        <time>2019-01-04T21:55:13Z</time>
      </trkpt>
      <trkpt lat="49.11303" lon="1.97383">
        <ele>91</ele>
        <time>2019-01-04T21:56:13Z</time>
      </trkpt>
      <trkpt lat="49.11258" lon="1.97287">
        <ele>89</ele>
        <time>2019-01-04T21:57:13Z</time>
      </trkpt>
      <trkpt lat="49.11221" lon="1.97189">
        <ele>85</ele>
        <time>2019-01-04T21:58:13Z</time>
      </trkpt>
      <trkpt lat="49.11217" lon="1.97142">
        <ele>81</ele>
        <time>2019-01-04T21:59:13Z</time>
      </trkpt>
      <trkpt lat="49.1123" lon="1.9712">
        <ele>80</ele>
        <time>2019-01-04T22:00:13Z</time>
      </trkpt>
      <trkpt lat="49.11273" lon="1.97036">
        <ele>76</ele>
        <time>2019-01-04T22:01:13Z</time>
      </trkpt>
      <trkpt lat="49.1131" lon="1.9698">
        <ele>76</ele>
        <time>2019-01-04T22:02:13Z</time>
      </trkpt>
      <trkpt lat="49.11324" lon="1.96931">
        <ele>75</ele>
        <time>2019-01-04T22:03:13Z</time>
      </trkpt>
      <trkpt lat="49.11348" lon="1.96863">
        <ele>72</ele>
        <time>2019-01-04T22:04:13Z</time>
      </trkpt>
      <trkpt lat="49.11375" lon="1.96778">
        <ele>72</ele>
        <time>2019-01-04T22:05:13Z</time>
      </trkpt>
      <trkpt lat="49.11376" lon="1.96704">
        <ele>70</ele>
        <time>2019-01-04T22:06:13Z</time>
      </trkpt>
      <trkpt lat="49.11384" lon="1.96669">
        <ele>71</ele>
        <time>2019-01-04T22:07:13Z</time>
      </trkpt>
      <trkpt lat="49.11392" lon="1.96611">
        <ele>69</ele>
        <time>2019-01-04T22:08:13Z</time>
      </trkpt>
      <trkpt lat="49.11385" lon="1.96597">
        <ele>67</ele>
        <time>2019-01-04T22:09:13Z</time>
      </trkpt>
      <trkpt lat="49.11371" lon="1.96601">
        <ele>65</ele>
        <time>2019-01-04T22:10:13Z</time>
      </trkpt>
      <trkpt lat="49.11351" lon="1.96616">
        <ele>62</ele>
        <time>2019-01-04T22:11:13Z</time>
      </trkpt>
      <trkpt lat="49.11339" lon="1.96601">
        <ele>60</ele>
        <time>2019-01-04T22:12:13Z</time>
      </trkpt>
      <trkpt lat="49.11335" lon="1.96565">
        <ele>57</ele>
        <time>2019-01-04T22:13:13Z</time>
      </trkpt>
      <trkpt lat="49.11321" lon="1.96493">
        <ele>53</ele>
        <time>2019-01-04T22:14:13Z</time>
      </trkpt>
      <trkpt lat="49.11294" lon="1.96371">
        <ele>52</ele>
        <time>2019-01-04T22:15:13Z</time>
      </trkpt>
      <trkpt lat="49.11287" lon="1.96356">
        <ele>53</ele>
        <time>2019-01-04T22:16:13Z</time>
      </trkpt>
      <trkpt lat="49.11275" lon="1.96352">
        <ele>53</ele>
        <time>2019-01-04T22:17:13Z</time>
      </trkpt>
      <trkpt lat="49.11234" lon="1.96386">
        <ele>53</ele>
        <time>2019-01-04T22:18:13Z</time>
      </trkpt>
      <trkpt lat="49.11214" lon="1.96395">
        <ele>54</ele>
        <time>2019-01-04T22:19:13Z</time>
      </trkpt>
      <trkpt lat="49.1119" lon="1.96388">
        <ele>55</ele>
        <time>2019-01-04T22:20:13Z</time>
      </trkpt>
      <trkpt lat="49.11165" lon="1.96369">
        <ele>57</ele>
        <time>2019-01-04T22:21:13Z</time>
      </trkpt>
      <trkpt lat="49.11123" lon="1.9635">
        <ele>58</ele>
        <time>2019-01-04T22:22:13Z</time>
      </trkpt>
      <trkpt lat="49.11082" lon="1.96358">
        <ele>59</ele>
        <time>2019-01-04T22:23:13Z</time>
      </trkpt>
      <trkpt lat="49.11056" lon="1.96367">
        <ele>59</ele>
        <time>2019-01-04T22:24:13Z</time>
      </trkpt>
      <trkpt lat="49.10969" lon="1.96375">
        <ele>61</ele>
        <time>2019-01-04T22:25:13Z</time>
      </trkpt>
      <trkpt lat="49.10911" lon="1.96395">
        <ele>61</ele>
        <time>2019-01-04T22:26:13Z</time>
      </trkpt>
      <trkpt lat="49.10876" lon="1.96407">
        <ele>58</ele>
        <time>2019-01-04T22:27:13Z</time>
      </trkpt>
      <trkpt lat="49.1077" lon="1.96407">
        <ele>56</ele>
        <time>2019-01-04T22:28:13Z</time>
      </trkpt>
      <trkpt lat="49.1069" lon="1.96439">
        <ele>56</ele>
        <time>2019-01-04T22:29:13Z</time>
      </trkpt>
      <trkpt lat="49.10619" lon="1.96471">
        <ele>57</ele>
        <time>2019-01-04T22:30:13Z</time>
      </trkpt>
      <trkpt lat="49.10537" lon="1.96506">
        <ele>57</ele>
        <time>2019-01-04T22:31:13Z</time>
      </trkpt>
      <trkpt lat="49.10482" lon="1.96537">
        <ele>57</ele>
        <time>2019-01-04T22:32:13Z</time>
      </trkpt>
      <trkpt lat="49.10451" lon="1.96559">
        <ele>57</ele>
        <time>2019-01-04T22:33:13Z</time>
      </trkpt>
      <trkpt lat="49.10424" lon="1.96579">
        <ele>57</ele>
        <time>2019-01-04T22:34:13Z</time>
      </trkpt>
      <trkpt lat="49.10381" lon="1.96608">
        <ele>57</ele>
        <time>2019-01-04T22:35:13Z</time>
      </trkpt>
      <trkpt lat="49.10335" lon="1.96619">
        <ele>58</ele>
        <time>2019-01-04T22:36:13Z</time>
      </trkpt>
      <trkpt lat="49.10277" lon="1.96623">
        <ele>57</ele>
        <time>2019-01-04T22:37:13Z</time>
      </trkpt>
      <trkpt lat="49.10286" lon="1.96669">
        <ele>55</ele>
        <time>2019-01-04T22:38:13Z</time>
      </trkpt>
      <trkpt lat="49.10287" lon="1.96708">
        <ele>53</ele>
        <time>2019-01-04T22:39:13Z</time>
      </trkpt>
      <trkpt lat="49.10289" lon="1.96743">
        <ele>51</ele>
        <time>2019-01-04T22:40:13Z</time>
      </trkpt>
      <trkpt lat="49.10301" lon="1.96811">
        <ele>50</ele>
        <time>2019-01-04T22:41:13Z</time>
      </trkpt>
      <trkpt lat="49.10314" lon="1.96867">
        <ele>50</ele>
        <time>2019-01-04T22:42:13Z</time>
      </trkpt>
      <trkpt lat="49.10327" lon="1.96957">
        <ele>50</ele>
        <time>2019-01-04T22:43:13Z</time>
      </trkpt>
      <trkpt lat="49.10308" lon="1.97139">
        <ele>53</ele>
        <time>2019-01-04T22:44:13Z</time>
      </trkpt>
      <trkpt lat="49.10292" lon="1.97183">
        <ele>53</ele>
        <time>2019-01-04T22:45:13Z</time>
      </trkpt>
      <trkpt lat="49.10123" lon="1.97051">
        <ele>50</ele>
        <time>2019-01-04T22:46:13Z</time>
      </trkpt>
      <trkpt lat="49.10103" lon="1.97025">
        <ele>49</ele>
        <time>2019-01-04T22:47:13Z</time>
      </trkpt>
      <trkpt lat="49.1002" lon="1.97062">
        <ele>50</ele>
        <time>2019-01-04T22:48:13Z</time>
      </trkpt>
      <trkpt lat="49.09915" lon="1.97114">
        <ele>49</ele>
        <time>2019-01-04T22:49:13Z</time>
      </trkpt>
    </trkseg>
  </trk>
</gpx>